Time;durP1;ratioP1;P1;durP2;ratioP2;P2;SDS_P1;SDS_P2;PMS_P1;PMS_P2;Temp;Humidity;BMP_temperature;BMP_pressure;BME280_temperature;BME280_humidity;BME280_pressure;Samples;Min_cycle;Max_cycle;Signal;HPM_P1;HPM_P2
2022/05/07 00:01:57;;;;;;;18.15;13.48;;;;;;;15.87;71.13;102209.19;5036430;28;20514;-49
2022/05/07 00:04:25;;;;;;;20.27;12.88;;;;;;;15.91;71.28;102208.41;5053374;28;20116;-49
2022/05/07 00:06:54;;;;;;;17.88;13.18;;;;;;;15.93;70.96;102205.38;5064736;28;20059;-47
2022/05/07 00:09:24;;;;;;;19.52;13.68;;;;;;;15.95;71.04;102205.94;5068145;28;20037;-49
2022/05/07 00:11:51;;;;;;;22.00;13.88;;;;;;;15.95;71.29;102203.19;5060234;28;20819;-50
2022/05/07 00:14:19;;;;;;;20.38;14.13;;;;;;;15.96;70.87;102202.09;5072894;28;20058;-50
2022/05/07 00:19:33;;;;;;;22.17;15.18;;;;;;;15.91;71.04;102202.06;5053331;28;20045;-50
2022/05/07 00:22:01;;;;;;;28.08;15.55;;;;;;;15.91;71.13;102196.59;5052272;28;20087;-50
2022/05/07 00:24:28;;;;;;;24.10;15.15;;;;;;;15.94;70.60;102196.03;5052929;28;20057;-52
2022/05/07 00:26:56;;;;;;;22.45;15.02;;;;;;;15.94;70.60;102194.09;5052417;28;20037;-49
2022/05/07 00:29:24;;;;;;;21.90;15.48;;;;;;;15.92;70.57;102200.97;5053970;28;20049;-50
2022/05/07 00:31:51;;;;;;;19.00;14.32;;;;;;;15.91;70.75;102196.59;5062587;28;20135;-48
2022/05/07 00:34:21;;;;;;;23.73;15.10;;;;;;;15.90;70.86;102194.94;5055084;28;20044;-48
2022/05/07 00:36:49;;;;;;;23.67;15.70;;;;;;;15.90;70.36;102192.19;5061712;28;20518;-51
2022/05/07 00:39:17;;;;;;;20.77;14.80;;;;;;;15.90;70.61;102187.50;5033011;28;20043;-48
2022/05/07 00:41:44;;;;;;;21.42;14.80;;;;;;;15.89;70.24;102188.59;5026740;28;20045;-48
2022/05/07 00:44:12;;;;;;;24.15;15.35;;;;;;;15.88;70.63;102191.63;5052860;28;20033;-49
2022/05/07 00:46:40;;;;;;;22.23;14.93;;;;;;;15.80;71.47;102189.38;5052461;28;20041;-49
2022/05/07 00:49:07;;;;;;;22.27;14.27;;;;;;;15.76;71.48;102180.88;5027231;28;20404;-48
2022/05/07 00:51:35;;;;;;;20.48;15.45;;;;;;;15.72;71.13;102183.31;5017242;28;20064;-49
2022/05/07 00:54:05;;;;;;;22.27;14.70;;;;;;;15.71;71.40;102187.19;5023216;28;20032;-47
2022/05/07 00:56:34;;;;;;;27.08;15.38;;;;;;;15.67;71.66;102186.03;5050311;28;20067;-50
2022/05/07 00:59:02;;;;;;;21.55;14.90;;;;;;;15.66;71.94;102183.56;5015498;28;20099;-48
2022/05/07 01:01:30;;;;;;;22.00;15.60;;;;;;;15.63;72.14;102173.91;5015338;28;20095;-48
2022/05/07 01:04:18;;;;;;;23.05;15.13;;;;;;;15.61;72.44;102187.09;5020672;28;20555;-48
2022/05/07 01:06:47;;;;;;;24.48;15.25;;;;;;;15.58;72.93;102187.63;5036088;28;20513;-48
2022/05/07 01:09:15;;;;;;;22.33;14.35;;;;;;;15.55;73.10;102188.16;5034859;28;20484;-49
2022/05/07 01:11:45;;;;;;;21.90;14.90;;;;;;;15.52;72.91;102173.06;5038432;28;20124;-50
2022/05/07 01:14:13;;;;;;;22.17;15.65;;;;;;;15.50;73.39;102182.66;5038831;28;20076;-50
2022/05/07 01:16:41;;;;;;;21.23;14.80;;;;;;;15.48;73.29;102182.09;5046689;28;20136;-50
2022/05/07 01:19:09;;;;;;;19.85;14.85;;;;;;;15.48;73.56;102171.09;5020055;28;20065;-49
2022/05/07 01:21:37;;;;;;;22.52;14.95;;;;;;;15.46;73.63;102173.28;5015707;28;20073;-47
2022/05/07 01:24:06;;;;;;;25.23;15.35;;;;;;;15.45;73.70;102177.97;5014965;28;20056;-49
2022/05/07 01:26:37;;;;;;;23.25;14.38;;;;;;;15.48;73.73;102168.34;5039767;28;20091;-48
2022/05/07 01:29:05;;;;;;;21.90;15.57;;;;;;;15.47;73.88;102169.47;5034809;28;20037;-49
2022/05/07 01:31:37;;;;;;;20.77;14.38;;;;;;;15.46;73.54;102163.13;5048812;28;20099;-47
2022/05/07 01:34:05;;;;;;;21.33;14.68;;;;;;;15.46;73.41;102176.84;5038536;28;20044;-49
2022/05/07 01:36:36;;;;;;;19.45;14.55;;;;;;;15.49;73.52;102170.00;5039578;28;20115;-48
2022/05/07 01:39:09;;;;;;;20.52;14.73;;;;;;;15.51;73.57;102167.81;5038867;28;20087;-48
2022/05/07 01:41:37;;;;;;;21.98;14.57;;;;;;;15.44;73.58;102162.59;5040138;28;20045;-47
2022/05/07 01:44:06;;;;;;;19.35;14.35;;;;;;;15.42;73.84;102161.22;5021719;28;20114;-48
2022/05/07 01:49:26;;;;;;;21.75;15.38;;;;;;;15.30;74.76;102172.41;5051849;28;20052;-47
2022/05/07 01:51:54;;;;;;;22.05;14.65;;;;;;;15.26;75.43;102168.53;5057962;28;20053;-47
2022/05/07 01:54:21;;;;;;;23.42;15.02;;;;;;;15.20;75.72;102164.94;5032927;28;20033;-47
2022/05/07 01:56:52;;;;;;;22.05;15.52;;;;;;;15.16;75.87;102163.81;5027366;28;20540;-48
2022/05/07 01:59:19;;;;;;;20.30;15.52;;;;;;;15.16;76.04;102168.47;5038852;28;20072;-46
2022/05/07 02:01:49;;;;;;;18.25;13.85;;;;;;;15.15;76.36;102161.31;5037796;28;20049;-50
2022/05/07 02:04:17;;;;;;;18.50;14.20;;;;;;;15.12;76.55;102162.69;5055523;28;20051;-49
2022/05/07 02:06:45;;;;;;;18.52;14.05;;;;;;;15.11;76.26;102153.63;5038138;28;20411;-48
2022/05/07 02:09:13;;;;;;;18.10;13.90;;;;;;;15.10;76.63;102154.72;5051471;28;20049;-50
2022/05/07 02:11:40;;;;;;;19.10;14.80;;;;;;;15.10;76.96;102153.88;5032309;28;20045;-49
2022/05/07 02:14:09;;;;;;;22.48;14.15;;;;;;;15.08;76.73;102150.56;5029338;28;20131;-46
2022/05/07 02:16:37;;;;;;;19.77;14.15;;;;;;;15.05;77.24;102146.44;5057182;28;20072;-48
2022/05/07 02:19:05;;;;;;;24.90;15.07;;;;;;;15.03;77.16;102143.16;5054600;28;20041;-48
2022/05/07 02:21:32;;;;;;;20.73;14.68;;;;;;;15.03;77.66;102142.31;5055777;28;20060;-49
2022/05/07 02:24:00;;;;;;;19.73;14.95;;;;;;;15.02;77.33;102146.16;5037232;28;20056;-48
2022/05/07 02:26:28;;;;;;;21.80;14.73;;;;;;;14.95;77.69;102142.81;5037235;28;20041;-47
2022/05/07 02:28:59;;;;;;;23.88;15.40;;;;;;;14.90;78.12;102144.44;5054869;28;20041;-52
2022/05/07 02:31:27;;;;;;;21.23;15.40;;;;;;;14.92;78.12;102135.94;5038136;28;20072;-49
2022/05/07 02:33:54;;;;;;;24.35;16.25;;;;;;;14.96;77.93;102138.97;5038200;28;20049;-48
2022/05/07 02:36:23;;;;;;;20.55;14.55;;;;;;;14.99;77.57;102141.22;5037437;28;20059;-51
2022/05/07 02:38:51;;;;;;;21.38;15.98;;;;;;;15.04;77.25;102133.00;5060266;28;20111;-49
2022/05/07 02:44:07;;;;;;;22.10;14.18;;;;;;;14.95;76.87;102129.09;5073063;28;20044;-50
2022/05/07 02:46:35;;;;;;;21.48;14.75;;;;;;;14.95;77.29;102131.84;5073936;28;20036;-48
2022/05/07 02:49:09;;;;;;;20.65;15.15;;;;;;;14.96;77.09;102130.75;5040536;28;20045;-49
2022/05/07 02:51:37;;;;;;;22.50;15.02;;;;;;;14.95;76.98;102126.34;5021428;28;20053;-49
2022/05/07 02:54:04;;;;;;;23.30;15.38;;;;;;;14.89;77.10;102131.81;5074768;28;20406;-48
2022/05/07 02:56:33;;;;;;;21.95;15.60;;;;;;;14.82;77.25;102125.72;5037833;28;20503;-49
2022/05/07 02:59:01;;;;;;;20.48;15.52;;;;;;;14.76;77.72;102132.25;5049659;28;20032;-49
2022/05/07 03:01:28;;;;;;;23.00;16.05;;;;;;;14.71;77.82;102129.50;5074323;28;20119;-50
2022/05/07 03:03:57;;;;;;;22.95;16.25;;;;;;;14.72;78.03;102124.81;5056745;28;20427;-47
2022/05/07 03:06:25;;;;;;;20.25;15.88;;;;;;;14.70;77.89;102127.84;5040740;28;20069;-51
2022/05/07 03:08:53;;;;;;;21.67;16.48;;;;;;;14.69;77.84;102128.91;5038442;28;20025;-51
2022/05/07 03:11:20;;;;;;;20.20;16.17;;;;;;;14.69;78.15;102131.66;5054110;28;20033;-49
2022/05/07 03:13:48;;;;;;;20.77;16.48;;;;;;;14.70;77.68;102125.94;5036032;28;20543;-50
2022/05/07 03:16:15;;;;;;;23.92;15.63;;;;;;;14.72;77.56;102125.69;5036524;28;20044;-49
2022/05/07 03:18:43;;;;;;;20.73;16.00;;;;;;;14.73;77.39;102132.81;5066632;28;20041;-51
2022/05/07 03:21:12;;;;;;;20.27;15.50;;;;;;;14.76;77.49;102132.25;5072659;28;20059;-49
2022/05/07 03:23:40;;;;;;;26.33;16.52;;;;;;;14.75;77.33;102124.31;5073762;28;20107;-52
2022/05/07 03:26:09;;;;;;;21.10;15.52;;;;;;;14.76;77.23;102131.44;5050790;28;20563;-48
2022/05/07 03:28:37;;;;;;;23.33;16.90;;;;;;;14.75;77.09;102130.63;5054838;28;20032;-55
2022/05/07 03:31:05;;;;;;;21.77;15.80;;;;;;;14.74;77.21;102133.63;5044002;28;20044;-50
2022/05/07 03:33:33;;;;;;;22.23;16.63;;;;;;;14.72;77.61;102130.31;5036088;28;20041;-50
2022/05/07 03:36:01;;;;;;;24.70;16.38;;;;;;;14.69;77.54;102137.16;5015472;28;20049;-47
2022/05/07 03:38:29;;;;;;;23.25;16.02;;;;;;;14.69;77.80;102137.16;5042328;28;20040;-50
2022/05/07 03:41:04;;;;;;;21.70;15.95;;;;;;;14.71;77.78;102134.97;5054329;28;20044;-48
2022/05/07 03:43:37;;;;;;;21.85;15.80;;;;;;;14.72;77.78;102135.78;5055583;28;20494;-48
2022/05/07 03:46:06;;;;;;;21.88;16.20;;;;;;;14.72;77.64;102131.16;5018785;28;20514;-50
2022/05/07 03:48:34;;;;;;;18.48;14.70;;;;;;;14.69;77.91;102132.50;5040201;28;20075;-51
2022/05/07 03:51:03;;;;;;;21.25;15.68;;;;;;;14.71;77.83;102134.97;5055570;28;20053;-49
2022/05/07 03:53:32;;;;;;;24.38;16.63;;;;;;;14.70;77.53;102134.16;5055524;28;20040;-47
2022/05/07 03:56:06;;;;;;;20.52;15.68;;;;;;;14.68;77.82;102124.53;5040155;28;20048;-47
2022/05/07 03:58:37;;;;;;;23.23;16.27;;;;;;;14.70;77.65;102131.41;5036911;28;20503;-47
2022/05/07 04:01:15;;;;;;;20.83;15.73;;;;;;;14.68;77.58;102132.78;5035186;28;20073;-48
2022/05/07 04:03:43;;;;;;;21.77;15.45;;;;;;;14.62;78.06;102133.81;5052538;28;20561;-51
2022/05/07 04:06:12;;;;;;;21.48;15.63;;;;;;;14.55;78.50;102138.69;5034060;28;20143;-51
2022/05/07 04:08:39;;;;;;;23.45;15.60;;;;;;;14.56;78.42;102135.69;5060104;28;20044;-51
2022/05/07 04:11:08;;;;;;;20.48;15.55;;;;;;;14.62;78.18;102133.81;5054570;28;20067;-47
2022/05/07 04:13:36;;;;;;;22.67;16.05;;;;;;;14.64;78.14;102135.19;5072468;28;20053;-46
2022/05/07 04:16:05;;;;;;;22.35;16.17;;;;;;;14.65;78.04;102136.06;5049742;28;20028;-46
2022/05/07 04:18:39;;;;;;;20.95;15.85;;;;;;;14.64;77.79;102135.19;5034797;28;20044;-45
2022/05/07 04:21:12;;;;;;;24.05;15.88;;;;;;;14.62;77.82;102136.56;5035408;28;20128;-45
2022/05/07 04:23:40;;;;;;;22.33;16.23;;;;;;;14.58;78.29;102143.69;5033545;28;20053;-49
2022/05/07 04:26:08;;;;;;;24.15;15.77;;;;;;;14.57;78.20;102150.22;5033550;28;20045;-45
2022/05/07 04:28:41;;;;;;;22.38;16.20;;;;;;;14.58;78.08;102151.91;5043891;28;20545;-45
2022/05/07 04:31:15;;;;;;;24.48;17.50;;;;;;;14.62;77.68;102142.03;5054263;28;20048;-47
2022/05/07 04:33:46;;;;;;;20.58;16.52;;;;;;;14.67;77.19;102145.66;5054328;28;20040;-52
2022/05/07 04:36:15;;;;;;;24.75;17.45;;;;;;;14.70;77.02;102147.88;5034915;28;20045;-46
2022/05/07 04:38:44;;;;;;;21.98;17.10;;;;;;;14.73;76.62;102149.25;5034743;28;20041;-49
2022/05/07 04:41:18;;;;;;;22.52;17.23;;;;;;;14.75;76.32;102152.56;5035023;28;20443;-49
2022/05/07 04:43:46;;;;;;;23.17;17.73;;;;;;;14.77;76.33;102158.63;5038847;28;20102;-50
2022/05/07 04:46:17;;;;;;;23.10;17.08;;;;;;;14.77;76.12;102158.63;5052845;28;20041;-48
2022/05/07 04:48:51;;;;;;;22.98;17.98;;;;;;;14.78;76.25;102157.53;5047496;28;20388;-48
2022/05/07 04:51:20;;;;;;;23.42;17.85;;;;;;;14.78;75.96;102163.00;5055016;28;20045;-50
2022/05/07 04:54:19;;;;;;;27.25;18.90;;;;;;;14.78;75.68;102157.53;5048056;28;20044;-48
2022/05/07 04:56:49;;;;;;;22.45;17.50;;;;;;;14.79;75.50;102156.44;5018253;28;20045;-50
2022/05/07 04:59:19;;;;;;;22.15;17.13;;;;;;;14.80;75.63;102160.84;5049407;28;20044;-50
2022/05/07 05:02:09;;;;;;;27.02;17.90;;;;;;;14.80;75.64;102158.09;5055219;28;20045;-49
2022/05/07 05:04:39;;;;;;;23.83;18.30;;;;;;;14.80;75.46;102163.59;5036913;28;20444;-48
2022/05/07 05:07:12;;;;;;;21.30;17.23;;;;;;;14.81;75.43;102157.00;5018790;28;20042;-49
2022/05/07 05:09:43;;;;;;;25.75;18.65;;;;;;;14.81;75.41;102167.97;5058660;28;20041;-49
2022/05/07 05:12:17;;;;;;;22.92;18.02;;;;;;;14.82;75.46;102169.63;5058246;28;20111;-50
2022/05/07 05:15:03;;;;;;;25.50;17.83;;;;;;;14.83;75.38;102176.78;5046371;28;20033;-49
2022/05/07 05:17:49;;;;;;;23.35;17.70;;;;;;;14.85;75.59;102179.25;5039457;28;20041;-50
2022/05/07 05:20:18;;;;;;;20.13;15.00;;;;;;;14.87;75.23;102183.41;5038764;28;20048;-50
2022/05/07 05:23:12;;;;;;;26.38;15.77;;;;;;;14.88;75.14;102185.03;5046443;28;20040;-51
2022/05/07 05:25:45;;;;;;;27.42;20.35;;;;;;;14.85;75.71;102191.06;5042713;28;20565;-50
2022/05/07 05:28:35;;;;;;;26.92;20.90;;;;;;;14.78;75.89;102195.94;5050793;28;20052;-47
2022/05/07 05:31:07;;;;;;;32.25;20.15;;;;;;;14.75;75.96;102195.66;5042162;28;20061;-52
2022/05/07 05:33:40;;;;;;;28.15;20.67;;;;;;;14.73;75.96;102197.81;5055006;28;20068;-51
2022/05/07 05:36:13;;;;;;;29.30;18.67;;;;;;;14.74;75.73;102200.28;5038143;28;20037;-49
2022/05/07 05:38:44;;;;;;;27.23;17.77;;;;;;;14.78;75.69;102197.88;5039235;28;20530;-51
2022/05/07 05:41:14;;;;;;;23.20;16.90;;;;;;;14.80;74.79;102199.25;5039191;28;20442;-50
2022/05/07 05:43:45;;;;;;;28.55;18.00;;;;;;;14.81;74.79;102200.06;5037328;28;20419;-51
2022/05/07 05:46:14;;;;;;;27.35;17.85;;;;;;;14.80;74.70;102214.91;5035732;28;20038;-50
2022/05/07 05:48:45;;;;;;;27.42;17.85;;;;;;;14.79;74.66;102211.34;5039457;28;20040;-49
2022/05/07 05:51:12;;;;;;;23.65;17.27;;;;;;;14.78;74.88;102215.16;5035579;28;20099;-51
2022/05/07 05:53:44;;;;;;;26.27;19.42;;;;;;;14.75;75.48;102218.44;5018996;28;20092;-51
2022/05/07 05:56:13;;;;;;;26.42;18.73;;;;;;;14.72;75.63;102218.97;5036067;28;20057;-51
2022/05/07 05:58:45;;;;;;;31.73;19.13;;;;;;;14.69;75.90;102219.47;5039109;28;20044;-52
2022/05/07 06:01:15;;;;;;;27.08;19.58;;;;;;;14.68;75.86;102217.81;5057479;28;20044;-50
2022/05/07 06:03:54;;;;;;;25.67;19.17;;;;;;;14.66;76.04;102218.06;5034206;28;20045;-50
2022/05/07 06:06:22;;;;;;;26.27;17.85;;;;;;;14.65;76.75;102213.69;5038002;28;20048;-49
2022/05/07 06:08:50;;;;;;;31.92;19.13;;;;;;;14.67;76.64;102216.16;5038547;28;20045;-49
2022/05/07 06:11:19;;;;;;;22.85;18.92;;;;;;;14.68;76.62;102218.63;5037739;28;20450;-48
2022/05/07 06:13:47;;;;;;;28.20;20.10;;;;;;;14.70;76.80;102218.38;5025653;28;20145;-52
2022/05/07 06:16:17;;;;;;;28.75;19.13;;;;;;;14.69;76.93;102216.72;5020959;28;20414;-51
2022/05/07 06:18:46;;;;;;;24.05;18.17;;;;;;;14.71;76.56;102217.28;5050441;28;20108;-50
2022/05/07 06:21:13;;;;;;;23.92;18.10;;;;;;;14.75;76.32;102220.34;5036103;28;20045;-50
2022/05/07 06:23:44;;;;;;;26.67;16.77;;;;;;;14.76;76.27;102214.56;5033883;28;20081;-49
2022/05/07 06:29:05;;;;;;;25.88;16.80;;;;;;;14.80;75.80;102226.69;5034564;28;20092;-48
2022/05/07 06:31:38;;;;;;;27.27;17.55;;;;;;;14.79;75.12;102224.19;5052302;28;20048;-49
2022/05/07 06:34:10;;;;;;;27.27;18.48;;;;;;;14.76;75.80;102219.25;5049015;28;20115;-48
2022/05/07 06:36:45;;;;;;;25.67;18.13;;;;;;;14.77;75.83;102221.75;5029843;28;20405;-50
2022/05/07 06:39:16;;;;;;;27.85;18.20;;;;;;;14.77;76.13;102221.75;5010955;28;20057;-50
2022/05/07 06:41:43;;;;;;;27.17;18.40;;;;;;;14.76;75.99;102216.50;5036436;28;20053;-52
2022/05/07 06:44:11;;;;;;;29.00;18.80;;;;;;;14.78;75.93;102228.88;5053274;28;20091;-49
2022/05/07 06:46:40;;;;;;;26.42;17.20;;;;;;;14.79;75.96;102222.31;5053290;28;20384;-49
2022/05/07 06:49:09;;;;;;;28.25;18.30;;;;;;;14.82;76.01;102221.78;5033579;28;20395;-49
2022/05/07 06:51:54;;;;;;;31.95;16.90;;;;;;;14.87;76.43;102227.31;5013555;28;20037;-48
2022/05/07 06:54:22;;;;;;;24.08;17.58;;;;;;;14.91;76.14;102222.94;5035738;28;20121;-49
2022/05/07 06:56:49;;;;;;;25.00;16.55;;;;;;;14.97;75.59;102221.06;5034511;28;20520;-49
2022/05/07 06:59:17;;;;;;;29.13;16.63;;;;;;;15.04;75.53;102220.84;5034612;28;20487;-50
2022/05/07 07:01:45;;;;;;;28.25;16.85;;;;;;;15.10;75.01;102225.25;5038969;28;20037;-47
2022/05/07 07:04:13;;;;;;;26.45;16.25;;;;;;;15.15;74.59;102224.47;5054506;28;20052;-50
2022/05/07 07:06:40;;;;;;;25.33;17.33;;;;;;;15.20;74.80;102221.75;5051507;28;20049;-46
2022/05/07 07:09:08;;;;;;;28.88;17.30;;;;;;;15.23;74.92;102219.31;5014266;28;20049;-50
2022/05/07 07:11:36;;;;;;;25.80;16.10;;;;;;;15.25;73.95;102214.41;5049008;28;20044;-47
2022/05/07 07:14:04;;;;;;;25.13;15.77;;;;;;;15.26;72.45;102229.75;5068131;28;20060;-49
2022/05/07 07:16:32;;;;;;;32.42;16.95;;;;;;;15.26;72.12;102221.53;5073871;28;20053;-48
2022/05/07 07:19:00;;;;;;;26.17;17.60;;;;;;;15.30;71.85;102236.38;5074104;28;20051;-52
2022/05/07 07:21:28;;;;;;;30.55;15.98;;;;;;;15.32;71.82;102225.97;5054727;28;20052;-49
2022/05/07 07:23:57;;;;;;;25.17;16.67;;;;;;;15.34;72.27;102226.53;5054125;28;20414;-49
2022/05/07 07:26:25;;;;;;;27.17;17.50;;;;;;;15.36;71.57;102230.94;5054370;28;20045;-50
2022/05/07 07:28:53;;;;;;;28.45;16.80;;;;;;;15.37;71.51;102225.19;5056143;28;20045;-47
2022/05/07 07:31:21;;;;;;;28.55;17.00;;;;;;;15.40;71.00;102224.63;5073633;28;20080;-48
2022/05/07 07:33:48;;;;;;;28.05;16.77;;;;;;;15.43;70.73;102228.75;5070304;28;20059;-49
2022/05/07 07:36:16;;;;;;;28.10;16.77;;;;;;;15.45;70.69;102224.66;5039552;28;20047;-49
2022/05/07 07:38:44;;;;;;;29.88;17.42;;;;;;;15.49;71.02;102231.28;5073156;28;20521;-50
2022/05/07 07:41:11;;;;;;;24.50;17.10;;;;;;;15.52;70.46;102232.66;5060017;28;20095;-49
2022/05/07 07:43:42;;;;;;;25.90;17.13;;;;;;;15.55;70.92;102229.38;5053232;28;20399;-48
2022/05/07 07:49:00;;;;;;;22.67;14.07;;;;;;;15.66;72.25;102222.84;5045057;28;20132;-50
2022/05/07 07:51:27;;;;;;;22.75;16.48;;;;;;;15.75;70.71;102231.41;5073454;28;20046;-48
2022/05/07 07:53:55;;;;;;;23.08;16.05;;;;;;;15.80;69.91;102222.38;5071182;28;20045;-49
2022/05/07 07:56:23;;;;;;;28.77;17.38;;;;;;;15.86;69.48;102222.13;5054563;28;20037;-49
2022/05/07 07:58:51;;;;;;;27.67;16.67;;;;;;;15.91;69.00;102221.31;5053267;28;20088;-50
2022/05/07 08:01:19;;;;;;;25.63;16.20;;;;;;;15.95;67.74;102215.00;5053511;28;20052;-50
2022/05/07 08:03:46;;;;;;;24.50;15.07;;;;;;;16.00;67.59;102216.97;5032179;28;20044;-49
2022/05/07 08:06:14;;;;;;;28.30;16.98;;;;;;;16.03;67.54;102215.59;5036298;28;20045;-50
2022/05/07 08:11:46;;;;;;;28.00;17.27;;;;;;;16.11;66.71;102213.13;5052114;28;20052;-49
2022/05/07 08:14:14;;;;;;;27.17;17.60;;;;;;;16.17;66.81;102214.78;5052561;28;20409;-48
2022/05/07 08:16:43;;;;;;;26.55;18.40;;;;;;;16.24;66.99;102221.97;5065246;28;20043;-47
2022/05/07 08:19:14;;;;;;;34.08;20.58;;;;;;;16.25;66.09;102224.44;5067784;28;20072;-49
2022/05/07 08:21:42;;;;;;;29.30;17.85;;;;;;;16.29;65.92;102221.97;5053909;28;20041;-49
2022/05/07 08:24:10;;;;;;;26.98;17.75;;;;;;;16.32;65.18;102224.16;5052500;28;20041;-49
2022/05/07 08:26:37;;;;;;;29.40;18.17;;;;;;;16.33;64.95;102214.81;5052903;28;20119;-50
2022/05/07 08:29:05;;;;;;;27.02;18.02;;;;;;;16.35;65.02;102224.44;5052426;28;20033;-48
2022/05/07 08:31:32;;;;;;;22.08;14.70;;;;;;;16.40;65.24;102231.88;5067785;28;20045;-49
2022/05/07 08:34:00;;;;;;;21.83;14.15;;;;;;;16.42;64.94;102226.94;5071558;28;20043;-49
2022/05/07 08:36:28;;;;;;;22.73;14.85;;;;;;;16.43;65.37;102227.75;5073508;28;20039;-48
2022/05/07 08:38:55;;;;;;;33.88;18.42;;;;;;;16.43;65.08;102236.84;5067388;28;20075;-48
2022/05/07 08:41:23;;;;;;;34.90;18.92;;;;;;;16.43;64.71;102236.84;5052941;28;20049;-49
2022/05/07 08:43:51;;;;;;;31.92;19.77;;;;;;;16.44;65.30;102234.91;5075181;28;20047;-49
2022/05/07 08:46:19;;;;;;;33.67;19.90;;;;;;;16.47;65.19;102235.19;5065675;28;20037;-45
2022/05/07 08:48:51;;;;;;;30.17;19.60;;;;;;;16.49;65.12;102232.19;5051367;28;20128;-46
2022/05/07 08:51:22;;;;;;;34.28;19.75;;;;;;;16.49;65.29;102235.75;5076603;28;20040;-46
2022/05/07 08:53:53;;;;;;;27.33;18.05;;;;;;;16.50;65.54;102237.41;5070471;28;20036;-48
2022/05/07 08:56:22;;;;;;;35.00;20.55;;;;;;;16.52;65.92;102240.69;5076935;28;20102;-45
2022/05/07 08:58:51;;;;;;;28.02;19.15;;;;;;;16.56;66.09;102229.97;5057928;28;20529;-46
2022/05/07 09:01:19;;;;;;;29.88;19.60;;;;;;;16.59;65.74;102229.44;5040264;28;20487;-49
2022/05/07 09:03:48;;;;;;;33.40;20.23;;;;;;;16.64;65.84;102231.34;5063088;28;20514;-47
2022/05/07 09:06:18;;;;;;;33.25;22.38;;;;;;;16.69;65.73;102229.44;5058799;28;20123;-49
2022/05/07 09:08:47;;;;;;;34.15;22.08;;;;;;;16.74;65.60;102232.19;5076294;28;20049;-49
2022/05/07 09:11:17;;;;;;;34.20;21.92;;;;;;;16.80;65.34;102227.53;5056629;28;20048;-48
2022/05/07 09:13:45;;;;;;;35.28;22.75;;;;;;;16.83;65.02;102229.72;5021854;28;20053;-52
2022/05/07 09:16:13;;;;;;;33.38;21.13;;;;;;;16.87;65.23;102225.34;5022282;28;20040;-50
2022/05/07 09:18:48;;;;;;;31.95;21.40;;;;;;;16.91;64.16;102226.44;5038845;28;20098;-51
2022/05/07 09:21:16;;;;;;;29.80;20.33;;;;;;;16.95;63.96;102221.19;5022403;28;20419;-51
2022/05/07 09:23:45;;;;;;;29.95;17.02;;;;;;;17.01;62.45;102220.91;5059175;28;20514;-49
2022/05/07 09:26:29;;;;;;;30.25;18.00;;;;;;;17.08;61.87;102228.91;5046889;28;20045;-47
2022/05/07 09:28:58;;;;;;;22.02;12.07;;;;;;;17.10;57.02;102218.44;5052852;28;20037;-50
2022/05/07 09:31:30;;;;;;;22.63;11.32;;;;;;;17.16;55.80;102222.00;5065159;28;20044;-49
2022/05/07 09:36:59;;;;;;;21.63;10.85;;;;;;;17.31;54.72;102212.88;5013453;28;20054;-46
2022/05/07 09:39:33;;;;;;;21.90;10.90;;;;;;;17.34;55.36;102212.31;5054576;28;20055;-50
2022/05/07 09:42:02;;;;;;;29.55;13.55;;;;;;;17.37;56.19;102218.09;5039217;28;20037;-46
2022/05/07 09:44:29;;;;;;;23.85;12.48;;;;;;;17.40;56.51;102222.22;5054630;28;20037;-46
2022/05/07 09:46:59;;;;;;;22.13;12.38;;;;;;;17.42;57.05;102220.84;5018986;28;20045;-46
2022/05/07 09:49:28;;;;;;;36.72;13.80;;;;;;;17.45;58.21;102220.28;5032797;28;20487;-49
2022/05/07 09:51:56;;;;;;;25.63;14.05;;;;;;;17.48;58.38;102218.06;5038024;28;20071;-51
2022/05/07 10:00:00;;;;;;;;;;;;;;;17.68;58.29;102226.28;5056224;28;20450;-46
2022/05/07 10:03:30;;;;;;;30.15;17.88;;;;;;;17.79;58.86;102227.84;5025791;28;19966;-49
2022/05/07 10:06:19;;;;;;;31.20;19.10;;;;;;;17.88;58.50;102217.94;5012347;28;20101;-48
2022/05/07 10:09:12;;;;;;;34.03;18.33;;;;;;;17.87;58.47;102221.81;5063312;28;20986;-50
2022/05/07 10:11:40;;;;;;;24.10;17.20;;;;;;;17.86;59.83;102219.31;5074267;28;20064;-49
2022/05/07 10:14:07;;;;;;;31.25;18.27;;;;;;;17.86;60.17;102222.91;5060391;28;20063;-49
2022/05/07 10:16:38;;;;;;;32.17;15.18;;;;;;;17.87;60.64;102213.53;5055073;28;20045;-48
2022/05/07 10:19:13;;;;;;;27.95;17.15;;;;;;;17.88;61.38;102217.09;5056014;28;20052;-51
2022/05/07 10:21:41;;;;;;;26.73;16.95;;;;;;;17.93;60.95;102213.50;5053554;28;20041;-48
2022/05/07 10:24:19;;;;;;;29.80;18.05;;;;;;;18.02;59.25;102220.06;5054535;28;20037;-47
2022/05/07 10:26:47;;;;;;;26.55;17.17;;;;;;;18.12;57.93;102211.75;5037381;28;20044;-52
2022/05/07 10:29:25;;;;;;;27.88;17.48;;;;;;;18.16;58.29;102212.81;5055909;28;20037;-51
2022/05/07 10:32:05;;;;;;;27.38;17.13;;;;;;;18.09;58.46;102207.63;5039219;28;20068;-51
2022/05/07 10:34:33;;;;;;;27.58;16.80;;;;;;;18.09;58.53;102204.03;5065991;28;20048;-49
2022/05/07 10:37:07;;;;;;;24.90;14.80;;;;;;;18.10;57.66;102200.97;5054130;28;20041;-49
2022/05/07 10:39:36;;;;;;;24.10;14.05;;;;;;;18.18;58.00;102205.06;5058571;28;20387;-46
2022/05/07 10:42:17;;;;;;;25.83;14.55;;;;;;;18.29;58.65;102203.91;5057090;28;20151;-48
2022/05/07 10:44:45;;;;;;;27.42;17.25;;;;;;;18.35;58.88;102201.09;5067728;28;20094;-46
2022/05/07 10:47:20;;;;;;;25.85;16.45;;;;;;;18.41;57.88;102202.72;5054836;28;20045;-49
2022/05/07 10:49:55;;;;;;;27.38;14.50;;;;;;;18.43;57.06;102198.56;5037513;28;20405;-49
2022/05/07 10:52:31;;;;;;;;;;;;;;;18.51;54.43;102203.44;5038423;28;20119;-49
2022/05/07 10:55:09;;;;;;;25.55;13.05;;;;;;;18.49;54.27;102204.84;5054019;28;20398;-50
2022/05/07 10:57:44;;;;;;;18.80;11.82;;;;;;;18.49;53.94;102193.81;5055780;28;20404;-49
2022/05/07 11:00:24;;;;;;;24.97;12.23;;;;;;;18.51;55.45;102188.84;5062404;28;20495;-52
2022/05/07 11:02:58;;;;;;;22.58;12.75;;;;;;;18.59;55.61;102188.22;5074377;28;20058;-47
2022/05/07 11:05:44;;;;;;;22.00;14.05;;;;;;;18.68;54.91;102180.13;5059102;28;20116;-47
2022/05/07 11:08:12;;;;;;;;;;;;;;;18.74;54.97;102190.84;5020578;28;20438;-49
2022/05/07 11:10:40;;;;;;;20.58;13.80;;;;;;;18.83;55.46;102199.38;5055628;28;19920;-49
2022/05/07 11:13:09;;;;;;;23.55;14.23;;;;;;;18.82;56.21;102194.13;5053030;28;20053;-49
2022/05/07 11:15:37;;;;;;;29.30;15.63;;;;;;;18.85;56.45;102194.34;5017017;28;20053;-49
2022/05/07 11:18:17;;;;;;;25.30;14.52;;;;;;;18.87;54.57;102191.31;5026516;28;20111;-51
2022/05/07 11:20:45;;;;;;;22.23;13.57;;;;;;;18.87;53.21;102189.38;5072274;28;20052;-46
2022/05/07 11:23:13;;;;;;;23.60;13.50;;;;;;;18.93;53.83;102182.69;5055041;28;20056;-48
2022/05/07 11:25:45;;;;;;;22.63;13.57;;;;;;;19.00;54.94;102182.34;5035472;28;20071;-50
2022/05/07 11:28:12;;;;;;;23.25;13.00;;;;;;;19.06;55.02;102181.19;5053213;28;20518;-47
2022/05/07 11:30:50;;;;;;;23.17;12.98;;;;;;;18.99;55.67;102191.75;5038452;28;20503;-47
2022/05/07 11:33:25;;;;;;;23.85;13.32;;;;;;;18.93;54.58;102182.69;5037112;28;20577;-50
2022/05/07 11:36:06;;;;;;;23.30;12.88;;;;;;;18.90;54.02;102187.97;5040215;28;20152;-50
2022/05/07 11:38:37;;;;;;;19.45;11.80;;;;;;;18.87;53.21;102189.38;5031151;28;20040;-48
2022/05/07 11:41:09;;;;;;;19.48;12.85;;;;;;;18.92;53.34;102183.78;5053585;28;20037;-49
2022/05/07 11:46:25;;;;;;;21.00;12.68;;;;;;;19.09;53.14;102183.34;5054328;28;20124;-51
2022/05/07 11:48:53;;;;;;;20.33;11.65;;;;;;;19.10;52.51;102178.66;5053077;28;20133;-50
2022/05/07 11:51:25;;;;;;;22.15;13.40;;;;;;;19.08;53.38;102178.13;5035777;28;20384;-49
2022/05/07 11:53:53;;;;;;;19.67;12.82;;;;;;;19.16;55.22;102172.78;5035770;28;20055;-50